Time;durP1;ratioP1;P1;durP2;ratioP2;P2;SDS_P1;SDS_P2;PMS_P1;PMS_P2;Temp;Humidity;BMP_temperature;BMP_pressure;BME280_temperature;BME280_humidity;BME280_pressure;Samples;Min_cycle;Max_cycle;Signal;HPM_P1;HPM_P2
2023/05/29 00:01:27;;;;;;;5.00;2.50;;;;;;;13.42;47.39;99697.61;106846;1264;71553;-40
2023/05/29 00:03:55;;;;;;;4.30;2.50;;;;;;;13.41;47.12;99700.48;106858;1264;60106;-39
2023/05/29 00:06:24;;;;;;;3.90;2.40;;;;;;;13.39;47.12;99700.39;106835;1266;60071;-40
2023/05/29 00:08:51;;;;;;;2.90;2.00;;;;;;;13.37;47.17;99701.75;106927;1267;73074;-40
2023/05/29 00:11:20;;;;;;;7.50;2.20;;;;;;;13.36;47.30;99703.45;106823;1263;66438;-40
2023/05/29 00:13:47;;;;;;;4.50;2.20;;;;;;;13.34;47.37;99704.59;106833;1264;71422;-39
2023/05/29 00:16:17;;;;;;;4.40;2.30;;;;;;;13.33;47.41;99701.67;106960;1264;60109;-39
2023/05/29 00:18:45;;;;;;;3.20;1.80;;;;;;;13.31;47.28;99707.89;106862;1262;59530;-39
2023/05/29 00:21:13;;;;;;;3.60;2.00;;;;;;;13.28;47.18;99706.37;106780;1262;71774;-40
2023/05/29 00:23:41;;;;;;;4.30;2.00;;;;;;;13.26;47.20;99710.94;106826;1263;67922;-40
2023/05/29 00:26:11;;;;;;;5.80;2.40;;;;;;;13.24;47.24;99713.02;106851;1263;72738;-40
2023/05/29 00:28:40;;;;;;;2.80;1.60;;;;;;;13.21;47.53;99710.56;106838;1263;60142;-40
2023/05/29 00:31:08;;;;;;;3.40;1.90;;;;;;;13.20;47.49;99712.71;106863;1266;59667;-40
2023/05/29 00:33:35;;;;;;;5.00;2.10;;;;;;;13.19;47.48;99714.34;106859;1267;73055;-40
2023/05/29 00:36:03;;;;;;;6.90;2.20;;;;;;;13.18;47.65;99717.89;106860;1264;67590;-40
2023/05/29 00:38:34;;;;;;;5.30;2.20;;;;;;;13.16;47.73;99714.45;106845;1262;72663;-40
2023/05/29 00:41:02;;;;;;;5.20;2.10;;;;;;;13.14;47.79;99713.41;106869;1263;60075;-40
2023/05/29 00:43:30;;;;;;;5.30;2.50;;;;;;;13.12;48.17;99706.92;106858;1263;59602;-40
2023/05/29 00:45:58;;;;;;;4.80;2.10;;;;;;;13.09;48.05;99709.48;106878;1263;73086;-40
2023/05/29 00:48:26;;;;;;;6.50;2.60;;;;;;;13.02;48.12;99710.10;106848;1263;66935;-40
2023/05/29 00:50:53;;;;;;;5.70;2.60;;;;;;;13.01;47.93;99705.34;106836;1264;72696;-40
2023/05/29 00:53:22;;;;;;;9.30;2.50;;;;;;;12.99;47.89;99709.04;106886;1267;59576;-40
2023/05/29 00:55:50;;;;;;;7.50;2.40;;;;;;;12.98;47.87;99704.28;106831;1267;60090;-40
2023/05/29 00:58:18;;;;;;;5.50;2.80;;;;;;;12.96;48.37;99701.23;106834;1262;73885;-40
2023/05/29 01:00:46;;;;;;;3.90;2.60;;;;;;;12.93;48.51;99699.46;107081;1258;67924;-40
2023/05/29 01:03:16;;;;;;;3.40;2.40;;;;;;;12.90;48.46;99698.50;107026;1258;72671;-40
2023/05/29 01:05:46;;;;;;;8.50;3.00;;;;;;;12.88;48.58;99700.32;106979;1260;60422;-40
2023/05/29 01:08:13;;;;;;;6.50;2.40;;;;;;;12.86;48.59;99701.46;107278;1258;60879;-40
2023/05/29 01:10:44;;;;;;;4.20;2.50;;;;;;;12.83;48.28;99699.55;107092;1263;72643;-40
2023/05/29 01:13:16;;;;;;;9.80;3.20;;;;;;;12.81;48.38;99703.33;107065;1257;68008;-40
2023/05/29 01:15:54;;;;;;;5.80;2.70;;;;;;;12.80;48.16;99707.35;107086;1257;72696;-40
2023/05/29 01:18:39;;;;;;;4.40;2.60;;;;;;;12.79;48.52;99709.14;107259;1257;60400;-40
2023/05/29 01:21:35;;;;;;;6.70;3.10;;;;;;;12.79;48.38;99714.49;107232;1257;60553;-40
2023/05/29 01:24:24;;;;;;;4.50;2.70;;;;;;;12.77;48.58;99715.08;107017;1260;72662;-40
2023/05/29 01:26:52;;;;;;;7.70;3.30;;;;;;;12.73;48.64;99711.52;107096;1258;67989;-41
2023/05/29 01:29:26;;;;;;;7.90;2.90;;;;;;;12.71;48.81;99709.55;107253;1263;72712;-41
2023/05/29 01:31:53;;;;;;;5.10;2.60;;;;;;;12.71;48.88;99707.38;107081;1257;60429;-40
2023/05/29 01:34:21;;;;;;;4.80;2.60;;;;;;;12.69;48.88;99712.70;107042;1257;60336;-40
2023/05/29 01:36:49;;;;;;;3.90;2.70;;;;;;;12.67;48.92;99713.53;107133;1258;72121;-40
2023/05/29 01:39:18;;;;;;;9.00;3.10;;;;;;;12.65;48.89;99717.08;107110;1257;66867;-40
2023/05/29 01:41:47;;;;;;;6.10;3.10;;;;;;;12.63;49.15;99724.03;107060;1257;72755;-40
2023/05/29 01:44:14;;;;;;;5.40;2.70;;;;;;;12.60;49.25;99719.39;107236;1257;60171;-39
2023/05/29 01:46:42;;;;;;;6.10;2.80;;;;;;;12.56;49.10;99726.73;107121;1257;60441;-39
2023/05/29 01:49:10;;;;;;;6.50;2.80;;;;;;;12.54;49.14;99731.19;107234;1262;73831;-39
2023/05/29 01:51:42;;;;;;;7.50;2.80;;;;;;;12.52;49.20;99733.96;107241;1257;67888;-39
2023/05/29 01:54:09;;;;;;;7.40;3.10;;;;;;;12.50;49.20;99737.56;107245;1257;71690;-39
2023/05/29 01:56:37;;;;;;;4.70;3.00;;;;;;;12.48;49.54;99738.33;107185;1258;60412;-40
2023/05/29 01:59:06;;;;;;;4.00;2.90;;;;;;;12.48;49.72;99743.52;107115;1257;59860;-39
2023/05/29 02:01:33;;;;;;;4.20;2.40;;;;;;;12.49;49.64;99743.38;107077;1263;74075;-39
2023/05/29 02:04:01;;;;;;;5.60;3.00;;;;;;;12.51;49.48;99747.70;107244;1257;67525;-40
2023/05/29 02:06:30;;;;;;;5.00;3.20;;;;;;;12.52;49.74;99749.95;107091;1260;71463;-40
2023/05/29 02:08:58;;;;;;;4.40;3.30;;;;;;;12.51;49.42;99749.88;107231;1257;60310;-40
2023/05/29 02:11:26;;;;;;;5.90;2.60;;;;;;;12.50;49.21;99748.67;107252;1257;60306;-40
2023/05/29 02:13:54;;;;;;;6.20;3.00;;;;;;;12.52;49.30;99743.13;107215;1257;73950;-40
2023/05/29 02:16:22;;;;;;;9.60;3.60;;;;;;;12.53;49.36;99741.25;107311;1257;66622;-40
2023/05/29 02:18:51;;;;;;;6.80;3.00;;;;;;;12.53;49.13;99746.25;107241;1257;71774;-40
2023/05/29 02:21:19;;;;;;;8.80;3.20;;;;;;;12.53;49.39;99749.66;107201;1257;60329;-40
2023/05/29 02:23:46;;;;;;;7.10;3.00;;;;;;;12.53;49.05;99750.29;107207;1257;60432;-39
2023/05/29 02:26:15;;;;;;;5.50;3.10;;;;;;;12.53;49.29;99745.79;107234;1261;73913;-40
2023/05/29 02:28:43;;;;;;;6.70;3.20;;;;;;;12.54;49.34;99743.30;107234;1257;67565;-40
2023/05/29 02:31:11;;;;;;;5.50;3.10;;;;;;;12.54;49.06;99740.06;107170;1261;72698;-40
2023/05/29 02:33:39;;;;;;;7.70;3.40;;;;;;;12.53;48.78;99740.51;107198;1257;60543;-40
2023/05/29 02:36:09;;;;;;;11.90;3.60;;;;;;;12.51;48.85;99737.34;107262;1257;60318;-40
2023/05/29 02:38:37;;;;;;;4.50;3.20;;;;;;;12.49;48.80;99732.89;107286;1256;73863;-40
2023/05/29 02:41:06;;;;;;;9.30;3.70;;;;;;;12.44;48.79;99732.27;107215;1262;66327;-40
2023/05/29 02:43:34;;;;;;;5.50;3.10;;;;;;;12.40;48.88;99735.76;107185;1257;72702;-40
2023/05/29 02:46:02;;;;;;;6.10;3.70;;;;;;;12.38;48.87;99733.08;107190;1257;60222;-40
2023/05/29 02:48:30;;;;;;;6.70;3.20;;;;;;;12.37;48.86;99729.52;107205;1257;60046;-40
2023/05/29 02:50:57;;;;;;;6.80;3.40;;;;;;;12.39;48.72;99733.48;107208;1257;72573;-41
2023/05/29 02:53:25;;;;;;;6.70;3.30;;;;;;;12.40;48.54;99735.13;107186;1257;67582;-41
2023/05/29 02:55:53;;;;;;;5.10;3.30;;;;;;;12.41;48.69;99736.01;107139;1257;70866;-41
2023/05/29 02:58:21;;;;;;;5.90;3.30;;;;;;;12.42;48.81;99736.65;107214;1257;60456;-41
2023/05/29 03:00:50;;;;;;;6.90;2.90;;;;;;;12.45;48.75;99739.34;107074;1257;60424;-38
2023/05/29 03:03:19;;;;;;;10.60;3.70;;;;;;;12.47;48.60;99737.59;107215;1257;72612;-39
2023/05/29 03:05:47;;;;;;;4.90;3.00;;;;;;;12.49;48.33;99740.58;107062;1257;67907;-40
2023/05/29 03:08:15;;;;;;;5.80;3.50;;;;;;;12.50;48.34;99739.06;107194;1257;71463;-39
2023/05/29 03:10:43;;;;;;;6.20;3.10;;;;;;;12.53;48.32;99740.17;107191;1257;60415;-39
2023/05/29 03:13:11;;;;;;;5.10;3.40;;;;;;;12.56;48.25;99736.90;107204;1257;60339;-39
2023/05/29 03:15:43;;;;;;;9.10;3.60;;;;;;;12.59;48.22;99733.98;107171;1257;72579;-40
2023/05/29 03:18:12;;;;;;;6.00;3.60;;;;;;;12.62;48.20;99736.91;107059;1257;67492;-39
2023/05/29 03:20:40;;;;;;;10.20;3.20;;;;;;;12.66;48.00;99742.10;107194;1257;72519;-39
2023/05/29 03:23:07;;;;;;;7.30;3.60;;;;;;;12.71;48.23;99747.16;107164;1257;60440;-39
2023/05/29 03:25:35;;;;;;;7.90;3.50;;;;;;;12.75;47.93;99748.55;107193;1257;60319;-40
2023/05/29 03:28:03;;;;;;;8.60;3.70;;;;;;;12.80;47.95;99754.39;107187;1257;73879;-39
2023/05/29 03:30:31;;;;;;;12.60;3.50;;;;;;;12.85;47.71;99756.71;107263;1256;66340;-40
2023/05/29 03:33:03;;;;;;;6.30;3.10;;;;;;;12.91;47.88;99756.81;107062;1257;73004;-40
2023/05/29 03:35:47;;;;;;;6.40;3.60;;;;;;;12.98;47.68;99755.54;106284;1263;1003051;-40
2023/05/29 03:38:14;;;;;;;13.60;4.10;;;;;;;13.04;47.59;99754.06;107038;1257;60447;-39
2023/05/29 03:40:42;;;;;;;5.80;3.50;;;;;;;13.12;47.40;99757.61;107172;1257;72974;-39
2023/05/29 03:43:10;;;;;;;5.80;3.50;;;;;;;13.18;47.24;99756.73;107252;1257;65807;-39
2023/05/29 03:45:38;;;;;;;7.40;3.40;;;;;;;13.25;46.92;99756.51;107151;1257;72419;-39
2023/05/29 03:48:05;;;;;;;6.20;3.40;;;;;;;13.32;46.83;99755.27;107257;1260;60438;-40
2023/05/29 03:50:33;;;;;;;7.40;3.60;;;;;;;13.38;46.34;99754.98;107032;1263;60305;-39
2023/05/29 03:53:01;;;;;;;6.50;3.60;;;;;;;13.44;46.30;99747.36;107220;1257;72562;-40
2023/05/29 03:55:29;;;;;;;7.40;3.20;;;;;;;13.51;46.14;99751.65;107212;1258;66293;-40
2023/05/29 03:57:57;;;;;;;4.90;3.40;;;;;;;13.58;45.83;99749.95;107143;1260;73323;-40
2023/05/29 04:00:25;;;;;;;7.20;3.80;;;;;;;13.64;46.00;99756.64;107195;1257;59540;-39
2023/05/29 04:02:56;;;;;;;6.70;3.50;;;;;;;13.70;45.98;99757.58;107047;1257;60357;-40
2023/05/29 04:05:25;;;;;;;10.00;3.50;;;;;;;13.76;45.91;99753.85;107327;1257;72560;-40
2023/05/29 04:07:52;;;;;;;5.30;3.40;;;;;;;13.83;45.93;99749.09;107124;1258;67560;-40
2023/05/29 04:10:34;;;;;;;9.00;3.40;;;;;;;13.90;46.13;99746.92;107044;1258;72690;-40
2023/05/29 04:13:02;;;;;;;5.80;3.30;;;;;;;13.95;45.46;99748.70;107221;1259;60549;-40
2023/05/29 04:15:30;;;;;;;8.00;3.30;;;;;;;14.03;45.80;99752.05;107071;1257;60411;-40
2023/05/29 04:17:58;;;;;;;7.20;3.80;;;;;;;14.09;46.05;99749.24;107152;1260;73839;-40
2023/05/29 04:20:26;;;;;;;5.00;3.20;;;;;;;14.17;46.04;99746.77;106975;1257;67609;-40
2023/05/29 04:22:54;;;;;;;4.70;2.90;;;;;;;14.25;46.17;99748.79;107053;1257;72653;-39
2023/05/29 04:25:22;;;;;;;8.90;3.50;;;;;;;14.34;46.02;99748.27;107135;1257;60409;-40
2023/05/29 04:27:50;;;;;;;8.50;3.30;;;;;;;14.40;45.01;99752.39;107057;1257;60359;-39
2023/05/29 04:30:19;;;;;;;6.10;3.20;;;;;;;14.46;45.38;99752.20;107046;1257;72663;-40
2023/05/29 04:32:48;;;;;;;8.60;3.40;;;;;;;14.55;45.36;99755.34;107145;1257;66230;-40
2023/05/29 04:35:16;;;;;;;8.40;3.40;;;;;;;14.63;44.71;99754.48;107051;1259;71421;-39
2023/05/29 04:37:52;;;;;;;6.60;3.10;;;;;;;14.68;44.56;99749.92;107040;1259;60448;-40
2023/05/29 04:40:20;;;;;;;6.20;3.30;;;;;;;14.73;44.93;99748.41;107149;1258;60384;-40
2023/05/29 04:42:50;;;;;;;5.80;3.30;;;;;;;14.80;44.94;99751.81;107063;1257;72579;-39
2023/05/29 04:45:22;;;;;;;4.10;2.90;;;;;;;14.87;44.64;99748.75;107043;1257;67257;-40
2023/05/29 04:47:52;;;;;;;6.40;3.20;;;;;;;14.95;44.58;99747.48;107094;1259;72696;-40
2023/05/29 04:50:20;;;;;;;5.20;3.30;;;;;;;15.04;44.52;99748.65;107108;1258;60093;-39
2023/05/29 04:52:48;;;;;;;5.50;3.20;;;;;;;15.12;44.41;99744.64;107188;1257;60423;-40
2023/05/29 04:55:16;;;;;;;8.00;3.10;;;;;;;15.18;44.71;99747.56;107051;1257;73966;-39
2023/05/29 04:57:44;;;;;;;6.50;3.20;;;;;;;15.26;44.91;99745.90;107084;1257;66506;-39
2023/05/29 05:00:15;;;;;;;4.00;2.80;;;;;;;15.33;45.11;99746.72;107155;1259;71420;-39
2023/05/29 05:02:44;;;;;;;4.60;2.60;;;;;;;15.39;44.83;99749.32;107186;1257;60209;-39
2023/05/29 05:05:13;;;;;;;6.60;3.00;;;;;;;15.44;44.55;99751.39;107091;1257;59259;-40
2023/05/29 05:07:40;;;;;;;5.80;2.80;;;;;;;15.52;44.76;99751.83;107053;1259;72549;-40
2023/05/29 05:10:09;;;;;;;5.90;3.40;;;;;;;15.62;45.11;99753.77;107054;1263;67586;-40
2023/05/29 05:12:36;;;;;;;7.90;3.00;;;;;;;15.73;44.65;99749.06;107109;1259;72688;-39
2023/05/29 05:15:05;;;;;;;5.40;2.90;;;;;;;15.84;43.81;99744.25;107093;1259;60058;-39
2023/05/29 05:17:33;;;;;;;5.50;2.60;;;;;;;15.95;43.86;99745.16;107097;1257;60457;-40
2023/05/29 05:20:01;;;;;;;7.00;2.50;;;;;;;16.05;44.43;99750.02;107190;1257;73836;-39
2023/05/29 05:22:29;;;;;;;9.40;2.60;;;;;;;16.17;43.56;99753.89;107048;1257;66301;-40
2023/05/29 05:24:59;;;;;;;4.60;2.90;;;;;;;16.28;43.15;99748.38;107166;1259;71077;-40
2023/05/29 05:27:27;;;;;;;8.80;2.90;;;;;;;16.39;43.29;99748.94;107030;1259;60509;-40
2023/05/29 05:29:54;;;;;;;5.10;2.80;;;;;;;16.49;42.92;99744.96;107160;1257;60100;-40
2023/05/29 05:32:25;;;;;;;6.50;3.20;;;;;;;16.59;42.67;99747.48;107076;1257;72575;-40
2023/05/29 05:34:59;;;;;;;7.70;2.90;;;;;;;16.69;42.03;99750.95;107069;1258;66620;-40
2023/05/29 05:37:27;;;;;;;5.30;3.10;;;;;;;16.76;41.70;99755.48;107073;1258;72693;-40
2023/05/29 05:39:58;;;;;;;7.30;3.10;;;;;;;16.87;41.36;99754.94;107184;1258;60532;-40
2023/05/29 05:42:25;;;;;;;5.00;2.60;;;;;;;16.96;41.00;99754.85;107065;1259;60068;-40
2023/05/29 05:45:01;;;;;;;4.90;2.80;;;;;;;17.04;40.89;99753.45;107013;1257;73861;-40
2023/05/29 05:47:29;;;;;;;5.40;2.70;;;;;;;17.12;40.78;99761.65;107038;1257;67559;-40
2023/05/29 05:49:57;;;;;;;4.50;2.50;;;;;;;17.22;41.07;99759.29;107123;1257;72715;-40
2023/05/29 05:52:25;;;;;;;7.10;2.40;;;;;;;17.33;39.74;99766.86;107187;1259;60434;-40
2023/05/29 05:54:54;;;;;;;3.60;2.30;;;;;;;17.43;38.20;99762.46;107177;1258;60400;-40
2023/05/29 05:57:22;;;;;;;4.80;2.30;;;;;;;17.53;38.20;99765.41;107103;1257;72590;-40
2023/05/29 05:59:50;;;;;;;3.90;2.60;;;;;;;17.63;37.40;99761.80;107092;1262;67596;-40
2023/05/29 06:02:18;;;;;;;4.90;2.00;;;;;;;17.71;37.57;99763.89;107044;1258;72737;-40
2023/05/29 06:04:46;;;;;;;3.60;2.30;;;;;;;17.80;36.37;99761.83;107035;1259;60378;-40
2023/05/29 06:07:14;;;;;;;6.10;3.10;;;;;;;17.89;36.08;99761.86;107095;1257;60539;-40
2023/05/29 06:09:42;;;;;;;5.50;3.00;;;;;;;17.97;37.05;99767.70;107018;1258;73875;-40
2023/05/29 06:12:10;;;;;;;6.60;2.90;;;;;;;18.04;37.82;99768.46;107054;1257;67574;-40
2023/05/29 06:14:41;;;;;;;4.30;2.60;;;;;;;18.14;38.19;99765.35;107056;1263;72409;-40
2023/05/29 06:17:09;;;;;;;5.30;2.50;;;;;;;18.24;37.44;99764.11;107131;1258;60136;-40
2023/05/29 06:19:37;;;;;;;4.20;2.50;;;;;;;18.36;36.78;99762.40;107018;1257;59575;-40
2023/05/29 06:22:05;;;;;;;6.60;2.50;;;;;;;18.45;36.00;99762.18;107166;1258;72681;-40
2023/05/29 06:24:33;;;;;;;5.40;3.00;;;;;;;18.56;36.65;99759.23;107178;1258;67751;-40
2023/05/29 06:27:01;;;;;;;5.90;2.30;;;;;;;18.65;37.32;99759.71;107118;1258;71723;-41
2023/05/29 06:29:29;;;;;;;6.70;2.50;;;;;;;18.75;36.44;99756.91;107039;1257;60638;-41
2023/05/29 06:31:56;;;;;;;7.70;2.30;;;;;;;18.82;35.88;99760.52;107019;1258;60014;-40
2023/05/29 06:34:24;;;;;;;5.70;2.50;;;;;;;18.92;35.81;99761.70;107053;1258;73830;-40
2023/05/29 06:36:52;;;;;;;4.90;2.50;;;;;;;19.00;35.38;99762.57;107015;1257;67567;-40
2023/05/29 06:39:20;;;;;;;3.10;2.20;;;;;;;19.08;35.07;99757.72;107039;1259;72707;-40
2023/05/29 06:41:47;;;;;;;4.20;2.10;;;;;;;19.15;35.18;99756.31;106944;1257;60526;-40
2023/05/29 06:44:17;;;;;;;;;;;;;;;19.22;35.33;99758.75;107195;1257;59653;-40
2023/05/29 06:46:45;;;;;;;4.40;1.80;;;;;;;19.26;35.74;99755.74;107116;1258;73140;-40
2023/05/29 06:49:13;;;;;;;6.30;2.50;;;;;;;19.35;33.61;99757.86;107056;1257;67850;-39
2023/05/29 06:51:41;;;;;;;6.70;2.60;;;;;;;19.46;33.53;99759.31;107130;1258;72723;-39
2023/05/29 06:54:20;;;;;;;5.20;2.30;;;;;;;19.55;33.57;99761.66;107099;1259;60433;-39
2023/05/29 06:56:48;;;;;;;5.40;2.00;;;;;;;19.61;32.54;99757.27;107197;1259;60334;-41
2023/05/29 06:59:36;;;;;;;3.30;2.10;;;;;;;19.72;32.25;99752.66;107087;1257;73877;-39
2023/05/29 07:02:04;;;;;;;5.40;2.30;;;;;;;19.81;31.93;99751.77;107069;1258;67068;-39
2023/05/29 07:04:32;;;;;;;2.30;1.90;;;;;;;19.91;31.32;99750.22;106979;1258;72841;-40
2023/05/29 07:06:59;;;;;;;4.70;1.80;;;;;;;20.01;30.52;99748.29;107047;1258;60305;-40
2023/05/29 07:09:27;;;;;;;5.80;2.00;;;;;;;20.09;30.32;99746.45;107059;1257;60274;-40
2023/05/29 07:11:55;;;;;;;4.40;2.30;;;;;;;20.15;30.86;99749.52;107125;1257;72597;-40
2023/05/29 07:14:23;;;;;;;5.20;2.10;;;;;;;20.21;31.06;99744.39;107035;1257;66764;-40
2023/05/29 07:16:52;;;;;;;5.20;2.30;;;;;;;20.30;31.41;99741.54;107037;1259;70445;-39
2023/05/29 07:19:20;;;;;;;5.10;2.20;;;;;;;20.40;31.41;99742.02;107107;1259;60086;-40
2023/05/29 07:21:49;;;;;;;6.00;2.20;;;;;;;20.50;31.89;99743.21;107169;1259;60426;-40
2023/05/29 07:24:18;;;;;;;4.30;1.80;;;;;;;20.56;31.72;99748.31;107089;1257;73870;-40
2023/05/29 07:26:47;;;;;;;3.10;1.80;;;;;;;20.62;31.59;99746.34;107010;1257;66449;-40
2023/05/29 07:29:17;;;;;;;5.00;2.10;;;;;;;20.69;31.68;99742.85;107048;1257;72774;-40
2023/05/29 07:31:45;;;;;;;4.10;2.30;;;;;;;20.74;32.14;99733.70;107118;1259;60442;-39
2023/05/29 07:34:13;;;;;;;4.30;2.20;;;;;;;20.83;31.64;99733.39;107056;1263;59330;-40
2023/05/29 07:37:00;;;;;;;3.80;2.20;;;;;;;20.95;30.89;99732.10;107032;1263;73885;-40
2023/05/29 07:39:28;;;;;;;5.30;2.20;;;;;;;20.99;30.24;99732.80;107030;1259;66466;-41
2023/05/29 07:41:58;;;;;;;3.50;1.90;;;;;;;21.00;30.69;99732.22;107127;1257;72720;-40
2023/05/29 07:44:25;;;;;;;5.40;2.50;;;;;;;21.08;30.01;99729.09;107067;1257;60433;-41
2023/05/29 07:46:53;;;;;;;4.30;2.20;;;;;;;21.14;28.90;99727.04;107007;1257;60431;-39
2023/05/29 07:49:51;;;;;;;4.50;2.20;;;;;;;21.18;29.16;99733.45;106971;1257;71718;-40
2023/05/29 07:52:22;;;;;;;4.10;2.40;;;;;;;21.19;28.93;99735.23;107029;1259;67630;-40
2023/05/29 07:54:49;;;;;;;4.70;2.40;;;;;;;21.23;29.02;99733.66;107024;1260;71457;-40
2023/05/29 07:57:17;;;;;;;6.80;2.10;;;;;;;21.30;29.56;99731.02;107019;1259;60443;-40
2023/05/29 07:59:49;;;;;;;4.10;2.00;;;;;;;21.27;28.78;99728.78;107104;1259;60536;-40
2023/05/29 08:02:17;;;;;;;5.30;2.50;;;;;;;21.25;29.01;99732.28;107150;1257;72608;-40
2023/05/29 08:05:04;;;;;;;3.80;2.20;;;;;;;21.38;29.79;99729.77;107117;1258;67895;-40
2023/05/29 08:07:32;;;;;;;4.10;2.20;;;;;;;21.53;29.26;99727.42;107103;1259;71400;-39
2023/05/29 08:09:59;;;;;;;8.10;2.40;;;;;;;21.64;29.42;99729.80;107050;1257;59716;-40
2023/05/29 08:12:27;;;;;;;2.40;1.90;;;;;;;21.73;29.49;99718.02;107059;1259;60368;-40
2023/05/29 08:14:57;;;;;;;3.00;2.00;;;;;;;21.79;29.07;99719.72;107089;1258;72573;-40
2023/05/29 08:17:25;;;;;;;5.20;2.40;;;;;;;21.83;29.74;99724.90;107119;1259;67598;-40
2023/05/29 08:19:53;;;;;;;5.20;2.50;;;;;;;21.94;29.42;99719.48;107107;1259;73035;-40
2023/05/29 08:22:22;;;;;;;3.40;2.10;;;;;;;22.09;28.75;99718.06;107085;1259;60547;-39
2023/05/29 08:24:49;;;;;;;6.00;2.00;;;;;;;22.23;28.12;99708.59;106965;1259;60432;-40
2023/05/29 08:27:17;;;;;;;3.30;2.30;;;;;;;22.37;28.80;99709.20;107074;1258;72677;-40
2023/05/29 08:29:45;;;;;;;4.20;2.30;;;;;;;22.52;28.85;99705.70;107080;1258;67584;-40
2023/05/29 08:32:13;;;;;;;4.50;2.00;;;;;;;22.64;28.42;99706.90;107039;1259;72461;-40
2023/05/29 08:34:41;;;;;;;6.70;2.40;;;;;;;22.67;27.09;99700.84;107042;1259;60461;-40
2023/05/29 08:37:10;;;;;;;4.90;2.10;;;;;;;22.60;27.36;99704.23;107118;1257;60549;-40
2023/05/29 08:39:38;;;;;;;6.50;2.50;;;;;;;22.59;27.58;99709.80;107046;1263;73910;-40
2023/05/29 08:42:07;;;;;;;3.70;2.10;;;;;;;22.61;26.65;99705.23;107044;1259;66437;-40
2023/05/29 08:44:35;;;;;;;;;;;;;;;22.64;27.71;99702.80;107123;1258;71528;-40
2023/05/29 08:47:03;;;;;;;3.30;2.00;;;;;;;22.67;28.20;99697.90;107084;1261;60110;-40
2023/05/29 08:49:37;;;;;;;6.90;2.30;;;;;;;22.76;27.43;99693.83;106915;1259;60505;-40
2023/05/29 08:52:26;;;;;;;6.30;2.60;;;;;;;22.91;27.56;99690.21;107086;1262;73853;-40
2023/05/29 08:54:54;;;;;;;4.20;2.10;;;;;;;23.09;27.89;99687.84;107065;1259;68021;-40
2023/05/29 08:57:22;;;;;;;3.70;2.00;;;;;;;23.24;26.94;99686.33;106877;1259;213879;-40
2023/05/29 09:01:12;;;;;;;4.40;2.00;;;;;;;23.47;26.56;99682.16;104080;1296;600578;-40
2023/05/29 09:03:41;;;;;;;5.10;2.10;;;;;;;23.57;26.34;99684.08;106580;1267;60117;-39
2023/05/29 09:06:09;;;;;;;5.60;2.00;;;;;;;23.66;25.92;99677.02;106526;1267;60158;-40
2023/05/29 09:08:36;;;;;;;6.70;2.60;;;;;;;23.73;26.32;99672.86;106507;1267;72234;-40
2023/05/29 09:11:05;;;;;;;7.40;2.30;;;;;;;23.74;25.30;99672.80;106616;1267;66453;-40
2023/05/29 09:13:32;;;;;;;4.50;2.70;;;;;;;23.69;25.32;99672.42;106574;1267;71014;-40
2023/05/29 09:16:00;;;;;;;3.50;2.60;;;;;;;23.62;24.85;99669.17;106540;1269;213962;-40
2023/05/29 09:18:30;;;;;;;5.60;2.60;;;;;;;23.59;25.38;99673.44;106736;1265;60576;-39
2023/05/29 09:20:58;;;;;;;6.00;2.50;;;;;;;23.56;25.11;99678.42;106659;1264;72258;-40
2023/05/29 09:23:29;;;;;;;4.40;2.50;;;;;;;23.58;25.18;99671.55;106731;1265;67719;-40
2023/05/29 09:25:57;;;;;;;4.40;2.40;;;;;;;23.60;24.20;99663.91;106707;1265;72721;-40
2023/05/29 09:28:26;;;;;;;5.90;2.20;;;;;;;23.57;25.15;99659.25;106694;1265;59465;-40
2023/05/29 09:30:54;;;;;;;5.40;2.50;;;;;;;23.64;25.37;99658.73;106604;1270;59498;-40
2023/05/29 09:33:22;;;;;;;5.40;2.50;;;;;;;23.73;25.44;99656.33;106673;1266;73102;-40
2023/05/29 09:35:50;;;;;;;3.70;2.30;;;;;;;23.83;25.56;99652.95;107121;1257;66055;-40
2023/05/29 09:38:19;;;;;;;8.90;2.60;;;;;;;23.91;25.33;99650.56;107145;1258;72689;-40
2023/05/29 09:40:49;;;;;;;4.70;3.10;;;;;;;23.96;25.11;99645.11;107189;1262;60097;-38
2023/05/29 09:43:18;;;;;;;4.60;2.40;;;;;;;24.03;25.27;99646.40;107200;1256;60075;-39
2023/05/29 09:45:49;;;;;;;4.80;2.40;;;;;;;24.12;25.31;99652.34;107167;1257;72977;-40
2023/05/29 09:48:18;;;;;;;4.50;2.40;;;;;;;24.20;25.49;99651.01;107223;1256;67198;-40
2023/05/29 09:50:47;;;;;;;5.30;2.60;;;;;;;24.29;25.22;99644.23;107238;1256;71576;-40
2023/05/29 09:53:18;;;;;;;7.20;2.60;;;;;;;24.41;25.15;99641.56;107198;1257;60217;-40
2023/05/29 09:55:47;;;;;;;4.10;2.50;;;;;;;24.44;24.29;99640.23;107329;1256;60057;-41
2023/05/29 09:58:15;;;;;;;4.80;2.30;;;;;;;24.38;24.49;99637.61;107198;1257;71564;-41
2023/05/29 10:00:43;;;;;;;7.50;2.80;;;;;;;24.36;24.67;99637.11;107301;1257;67599;-40
2023/05/29 10:03:14;;;;;;;6.30;2.80;;;;;;;24.43;24.68;99636.66;107163;1257;72777;-40
2023/05/29 10:05:43;;;;;;;4.60;2.50;;;;;;;24.49;23.95;99628.77;107206;1257;60254;-40
2023/05/29 10:08:15;;;;;;;7.50;2.50;;;;;;;24.45;23.52;99629.20;107210;1257;60032;-40
2023/05/29 10:10:48;;;;;;;8.30;2.40;;;;;;;24.47;24.60;99630.50;107170;1257;73127;-40
2023/05/29 10:13:18;;;;;;;8.60;2.70;;;;;;;24.55;23.81;99630.40;107060;1257;67598;-40
2023/05/29 10:15:46;;;;;;;5.40;2.30;;;;;;;24.62;23.37;99632.28;107158;1258;74093;-39
2023/05/29 10:18:19;;;;;;;5.70;2.70;;;;;;;24.73;23.90;99628.35;107236;1257;60080;-40
2023/05/29 10:20:55;;;;;;;3.80;2.40;;;;;;;24.89;23.89;99623.75;107179;1257;59702;-39
2023/05/29 10:23:25;;;;;;;4.40;2.50;;;;;;;25.08;23.42;99620.65;107167;1257;73054;-40
2023/05/29 10:25:54;;;;;;;3.90;2.40;;;;;;;25.22;23.52;99618.23;107146;1260;67876;-41
2023/05/29 10:28:23;;;;;;;5.40;2.40;;;;;;;25.40;23.14;99618.73;107187;1259;71513;-40
2023/05/29 10:31:05;;;;;;;5.00;2.60;;;;;;;25.54;23.26;99614.36;107117;1259;60099;-40
2023/05/29 10:33:44;;;;;;;5.00;2.50;;;;;;;25.70;23.20;99607.63;107179;1257;59453;-40
2023/05/29 10:36:16;;;;;;;4.90;2.20;;;;;;;25.93;22.45;99609.27;107164;1257;71786;-40
2023/05/29 10:38:45;;;;;;;4.50;2.60;;;;;;;26.06;22.52;99605.23;107161;1258;67599;-41
2023/05/29 10:41:28;;;;;;;4.50;2.70;;;;;;;26.19;22.90;99600.27;107222;1257;71477;-40
2023/05/29 10:43:59;;;;;;;4.50;2.20;;;;;;;26.28;23.12;99593.16;107113;1259;60108;-40
2023/05/29 10:46:44;;;;;;;5.30;2.40;;;;;;;26.40;23.46;99594.96;107199;1257;60007;-40
2023/05/29 10:49:19;;;;;;;4.60;2.50;;;;;;;26.65;22.16;99600.65;107160;1258;73079;-40
2023/05/29 10:51:51;;;;;;;5.00;2.60;;;;;;;26.74;21.52;99597.09;107192;1257;67760;-40
2023/05/29 10:54:25;;;;;;;6.10;2.60;;;;;;;26.78;21.65;99591.96;107128;1259;72684;-40
2023/05/29 10:56:56;;;;;;;5.50;2.40;;;;;;;27.01;21.97;99589.10;107146;1257;60071;-40
2023/05/29 10:59:27;;;;;;;4.90;2.40;;;;;;;27.27;21.67;99590.23;107249;1257;59563;-41
2023/05/29 11:01:55;;;;;;;4.50;2.60;;;;;;;27.49;20.88;99583.07;107152;1257;73067;-40
2023/05/29 11:04:26;;;;;;;5.50;2.50;;;;;;;27.48;20.98;99579.14;107326;1257;66771;-40
2023/05/29 11:06:53;;;;;;;4.90;2.40;;;;;;;27.53;21.49;99577.00;107246;1259;72637;-40
2023/05/29 11:09:37;;;;;;;3.80;2.60;;;;;;;27.69;21.26;99580.83;107113;1257;60049;-40
2023/05/29 11:12:36;;;;;;;6.50;2.70;;;;;;;27.83;21.35;99581.05;107069;1258;61028;-40
2023/05/29 11:15:10;;;;;;;5.10;2.10;;;;;;;27.98;21.10;99578.77;107195;1257;73094;-41
2023/05/29 11:17:38;;;;;;;4.30;2.40;;;;;;;28.23;21.41;99579.48;107162;1257;67901;-40
2023/05/29 11:20:27;;;;;;;5.00;2.40;;;;;;;28.45;20.50;99574.94;107115;1257;72713;-41
2023/05/29 11:23:03;;;;;;;5.00;2.30;;;;;;;28.42;20.24;99573.00;107148;1259;60318;-41
2023/05/29 11:25:34;;;;;;;4.10;2.30;;;;;;;28.42;20.10;99575.14;107206;1262;60494;-40
2023/05/29 11:28:04;;;;;;;7.00;2.80;;;;;;;28.72;20.25;99576.35;107194;1257;72432;-40
2023/05/29 11:30:32;;;;;;;6.70;2.50;;;;;;;29.02;19.28;99569.98;107081;1257;66750;-40
2023/05/29 11:33:01;;;;;;;4.60;2.30;;;;;;;29.28;19.59;99566.64;107077;1258;72695;-40
2023/05/29 11:35:30;;;;;;;5.00;2.20;;;;;;;29.48;19.12;99562.40;107282;1257;60148;-40
2023/05/29 11:37:58;;;;;;;3.30;2.20;;;;;;;29.66;19.28;99560.20;107254;1257;59864;-41